Time;durP1;ratioP1;P1;durP2;ratioP2;P2;SDS_P1;SDS_P2;PMS_P1;PMS_P2;Temp;Humidity;BMP_temperature;BMP_pressure;BME280_temperature;BME280_humidity;BME280_pressure;Samples;Min_cycle;Max_cycle;Signal;HPM_P1;HPM_P2
2021/11/14 00:00:34;;;;;;;23.05;8.00;;;8.00;93.40;;;;;;4823192;29;20051;-73
2021/11/14 00:03:03;;;;;;;13.82;7.20;;;8.10;93.40;;;;;;4823142;29;20457;-73
2021/11/14 00:05:38;;;;;;;18.38;8.05;;;8.10;93.40;;;;;;4837223;29;20377;-71
2021/11/14 00:08:08;;;;;;;21.95;8.10;;;8.20;93.30;;;;;;4823019;29;20168;-72
2021/11/14 00:10:36;;;;;;;23.15;8.30;;;8.30;93.30;;;;;;4823334;29;20062;-72
2021/11/14 00:13:04;;;;;;;18.35;7.70;;;8.30;93.20;;;;;;4822525;29;20069;-72
2021/11/14 00:15:32;;;;;;;17.52;7.68;;;8.30;93.20;;;;;;4821776;29;20061;-71
2021/11/14 00:18:00;;;;;;;18.52;8.00;;;8.40;93.10;;;;;;4823123;29;20046;-72
2021/11/14 00:20:28;;;;;;;17.08;8.18;;;8.40;93.10;;;;;;4822987;29;20061;-72
2021/11/14 00:22:56;;;;;;;15.82;7.97;;;8.40;93.00;;;;;;4823149;29;20409;-72
2021/11/14 00:25:24;;;;;;;21.25;8.60;;;8.40;93.00;;;;;;4822942;29;20054;-72
2021/11/14 00:27:52;;;;;;;22.38;8.55;;;8.40;93.00;;;;;;4823026;29;20074;-72
2021/11/14 00:30:27;;;;;;;16.80;7.82;;;8.30;93.00;;;;;;4836883;29;20054;-72
2021/11/14 00:32:54;;;;;;;20.08;7.88;;;8.40;93.00;;;;;;4821690;29;20050;-72
2021/11/14 00:35:23;;;;;;;17.25;8.13;;;8.40;93.00;;;;;;4822834;29;20512;-72
2021/11/14 00:37:51;;;;;;;22.80;8.60;;;8.50;93.00;;;;;;4822946;29;20456;-73
2021/11/14 00:40:27;;;;;;;21.50;8.75;;;8.50;93.00;;;;;;4822891;29;20053;-73
2021/11/14 00:42:56;;;;;;;24.90;8.75;;;8.50;93.00;;;;;;4791549;29;20054;-73
2021/11/14 00:45:26;;;;;;;16.65;9.00;;;8.60;93.00;;;;;;4822828;29;20050;-73
2021/11/14 00:47:54;;;;;;;27.13;9.90;;;8.60;92.90;;;;;;4822881;29;20046;-74
2021/11/14 00:50:22;;;;;;;26.65;9.52;;;8.60;92.90;;;;;;4822849;29;20076;-73
2021/11/14 00:52:50;;;;;;;27.25;9.00;;;8.70;92.90;;;;;;4824188;29;20046;-73
2021/11/14 00:55:20;;;;;;;23.80;8.90;;;8.80;92.90;;;;;;4825680;29;20058;-73
2021/11/14 00:57:48;;;;;;;24.92;8.43;;;8.80;92.80;;;;;;4826086;29;20405;-73
2021/11/14 01:00:20;;;;;;;26.02;9.00;;;8.80;92.80;;;;;;4825526;29;20059;-73
2021/11/14 01:02:49;;;;;;;29.48;9.10;;;8.80;92.70;;;;;;4826185;29;20365;-73
2021/11/14 01:05:18;;;;;;;16.88;8.02;;;8.80;92.70;;;;;;4826545;29;20539;-74
2021/11/14 01:07:46;;;;;;;23.08;9.27;;;8.80;92.70;;;;;;4825929;29;20061;-73
2021/11/14 01:10:18;;;;;;;23.48;9.77;;;8.90;92.70;;;;;;4826292;29;20057;-73
2021/11/14 01:12:45;;;;;;;26.42;9.65;;;8.90;92.70;;;;;;4825343;29;20062;-73
2021/11/14 01:15:14;;;;;;;27.25;10.15;;;8.90;92.70;;;;;;4825387;29;20433;-73
2021/11/14 01:17:43;;;;;;;24.58;10.55;;;8.90;92.70;;;;;;4825649;29;20051;-73
2021/11/14 01:20:24;;;;;;;32.10;10.25;;;8.90;92.70;;;;;;4824510;29;20043;-73
2021/11/14 01:22:54;;;;;;;26.27;10.50;;;8.90;92.70;;;;;;4825628;29;20054;-73
2021/11/14 01:25:22;;;;;;;29.73;9.65;;;8.90;92.60;;;;;;4825457;29;20053;-73
2021/11/14 01:27:51;;;;;;;29.38;10.10;;;8.90;92.60;;;;;;4825513;29;20058;-73
2021/11/14 01:30:23;;;;;;;21.58;10.32;;;9.00;92.60;;;;;;4825340;29;20047;-73
2021/11/14 01:32:51;;;;;;;29.73;10.18;;;9.00;92.50;;;;;;4825504;29;20054;-74
2021/11/14 01:35:20;;;;;;;26.63;11.52;;;9.00;92.50;;;;;;4808922;29;20055;-73
2021/11/14 01:37:49;;;;;;;25.88;10.20;;;9.00;92.50;;;;;;4825296;29;20496;-73
2021/11/14 01:40:31;;;;;;;33.75;11.88;;;9.00;92.50;;;;;;4825142;29;20065;-73
2021/11/14 01:43:00;;;;;;;31.90;10.83;;;9.00;92.40;;;;;;4824753;29;20528;-73
2021/11/14 01:45:28;;;;;;;24.27;10.05;;;9.00;92.50;;;;;;4825147;29;20302;-73
2021/11/14 01:47:56;;;;;;;31.92;10.77;;;9.00;92.40;;;;;;4823622;29;20050;-74
2021/11/14 01:50:24;;;;;;;27.65;9.88;;;9.00;92.30;;;;;;4823943;29;20089;-73
2021/11/14 01:52:53;;;;;;;29.73;10.68;;;9.00;92.30;;;;;;4822097;29;20050;-73
2021/11/14 01:55:25;;;;;;;32.13;10.65;;;9.00;92.30;;;;;;4807011;29;20050;-73
2021/11/14 01:57:54;;;;;;;31.02;11.38;;;9.00;92.30;;;;;;4806839;29;20490;-73
2021/11/14 02:00:29;;;;;;;34.58;12.05;;;9.00;92.30;;;;;;4806833;29;20051;-73
2021/11/14 02:02:58;;;;;;;31.65;12.13;;;9.00;92.30;;;;;;4807069;29;20054;-73
2021/11/14 02:05:29;;;;;;;27.40;11.73;;;9.00;92.30;;;;;;4806786;29;20109;-73
2021/11/14 02:07:59;;;;;;;27.10;10.98;;;9.00;92.30;;;;;;4806685;29;20540;-74
2021/11/14 02:10:29;;;;;;;29.77;10.57;;;9.00;92.30;;;;;;4806859;29;20059;-73
2021/11/14 02:12:58;;;;;;;31.77;10.85;;;9.00;92.30;;;;;;4806504;29;20051;-73
2021/11/14 02:15:26;;;;;;;29.55;11.68;;;9.00;92.30;;;;;;4806061;29;20514;-73
2021/11/14 02:17:53;;;;;;;25.63;10.18;;;9.00;92.20;;;;;;4805236;29;20142;-73
2021/11/14 02:20:22;;;;;;;25.25;9.82;;;9.00;92.20;;;;;;4806497;29;20050;-73
2021/11/14 02:22:50;;;;;;;30.00;11.60;;;9.00;92.10;;;;;;4806583;29;20051;-73
2021/11/14 02:25:20;;;;;;;29.10;10.60;;;9.00;92.10;;;;;;4805131;29;20121;-73
2021/11/14 02:27:50;;;;;;;22.05;11.00;;;9.00;92.00;;;;;;4806620;29;20425;-74
2021/11/14 02:30:21;;;;;;;25.27;10.20;;;9.00;91.90;;;;;;4806544;29;20051;-73
2021/11/14 02:32:49;;;;;;;23.17;9.85;;;9.00;92.00;;;;;;4806615;29;20051;-74
2021/11/14 02:35:39;;;;;;;21.75;9.75;;;9.00;91.90;;;;;;4806219;29;20625;-74
2021/11/14 02:38:07;;;;;;;20.73;10.07;;;8.90;91.90;;;;;;4806322;29;20046;-74
2021/11/14 02:40:35;;;;;;;19.35;8.68;;;8.90;91.90;;;;;;4805872;29;20073;-73
2021/11/14 02:43:03;;;;;;;21.05;8.55;;;8.90;91.90;;;;;;4806147;29;20409;-72
2021/11/14 02:45:31;;;;;;;18.70;9.27;;;8.90;91.80;;;;;;4806059;29;20051;-72
2021/11/14 02:47:59;;;;;;;17.42;9.20;;;8.90;91.80;;;;;;4806341;29;20514;-72
2021/11/14 02:50:27;;;;;;;17.33;8.90;;;8.90;91.70;;;;;;4805903;29;20395;-72
2021/11/14 02:52:54;;;;;;;20.67;9.20;;;8.90;91.60;;;;;;4819831;29;20051;-72
2021/11/14 02:55:26;;;;;;;21.75;10.02;;;8.80;91.60;;;;;;4804662;29;20155;-72
2021/11/14 02:57:54;;;;;;;19.27;9.55;;;8.80;91.60;;;;;;4820150;29;20054;-73
2021/11/14 03:00:29;;;;;;;25.02;10.40;;;8.70;91.60;;;;;;4805542;29;20059;-72
2021/11/14 03:02:58;;;;;;;24.92;10.32;;;8.60;91.70;;;;;;4806308;29;20493;-73
2021/11/14 03:05:26;;;;;;;24.77;9.88;;;8.50;91.80;;;;;;4805618;29;20058;-73
2021/11/14 03:07:54;;;;;;;19.73;10.50;;;8.40;91.80;;;;;;4805821;29;20055;-73
2021/11/14 03:10:25;;;;;;;19.38;10.23;;;8.30;91.90;;;;;;4805955;29;20232;-73
2021/11/14 03:13:00;;;;;;;22.83;10.63;;;8.10;91.90;;;;;;4818864;29;20063;-73
2021/11/14 03:15:31;;;;;;;24.88;11.77;;;7.90;92.10;;;;;;4805409;29;20402;-73
2021/11/14 03:18:00;;;;;;;24.88;12.57;;;7.70;92.20;;;;;;4805571;29;20050;-72
2021/11/14 03:20:28;;;;;;;27.55;13.30;;;7.60;92.50;;;;;;4805515;29;20046;-73
2021/11/14 03:22:56;;;;;;;33.25;13.02;;;7.50;92.60;;;;;;4805408;29;20066;-73
2021/11/14 03:25:25;;;;;;;30.77;14.05;;;7.40;92.50;;;;;;4805141;29;20429;-73
2021/11/14 03:27:53;;;;;;;33.42;12.20;;;7.20;92.40;;;;;;4805510;29;20450;-72
2021/11/14 03:30:23;;;;;;;23.48;12.63;;;7.00;92.40;;;;;;4805183;29;20054;-73
2021/11/14 03:32:51;;;;;;;29.13;14.77;;;6.80;92.50;;;;;;4804967;29;20505;-75
2021/11/14 03:35:22;;;;;;;42.92;19.42;;;6.70;92.70;;;;;;4803819;29;20071;-72
2021/11/14 03:37:51;;;;;;;42.08;19.23;;;6.60;92.90;;;;;;4804114;29;20054;-72
2021/11/14 03:40:20;;;;;;;38.03;17.67;;;6.50;93.20;;;;;;4805341;29;20501;-72
2021/11/14 03:42:48;;;;;;;41.78;19.73;;;6.50;93.20;;;;;;4805269;29;20402;-73
2021/11/14 03:45:17;;;;;;;47.47;22.75;;;6.40;93.20;;;;;;4805181;29;20486;-73
2021/11/14 03:47:45;;;;;;;48.35;24.52;;;6.30;93.20;;;;;;4805212;29;20054;-73
2021/11/14 03:50:13;;;;;;;48.10;23.48;;;6.20;93.30;;;;;;4805875;29;20398;-73
2021/11/14 03:52:44;;;;;;;42.13;21.58;;;6.20;93.30;;;;;;4804983;29;20062;-73
2021/11/14 03:55:13;;;;;;;49.75;24.48;;;6.10;93.60;;;;;;4803644;29;20047;-73
2021/11/14 03:57:43;;;;;;;63.35;29.45;;;6.10;94.00;;;;;;4805141;29;20383;-73
2021/11/14 04:00:16;;;;;;;57.88;26.65;;;6.10;94.10;;;;;;4805125;29;20067;-73
2021/11/14 04:02:44;;;;;;;53.30;26.30;;;6.10;94.30;;;;;;4803949;29;20504;-73
2021/11/14 04:05:12;;;;;;;57.13;27.42;;;6.20;94.40;;;;;;4804823;29;20058;-73
2021/11/14 04:07:40;;;;;;;62.50;28.70;;;6.10;94.20;;;;;;4804696;29;20051;-73
2021/11/14 04:10:09;;;;;;;59.58;27.85;;;6.00;94.00;;;;;;4805024;29;20455;-73
2021/11/14 04:12:37;;;;;;;58.30;26.95;;;6.00;93.70;;;;;;4804920;29;20072;-73
2021/11/14 04:15:07;;;;;;;62.13;27.60;;;5.90;93.70;;;;;;4803686;29;20062;-73
2021/11/14 04:17:36;;;;;;;57.78;25.65;;;5.90;94.00;;;;;;4811906;29;20050;-73
2021/11/14 04:20:06;;;;;;;51.65;23.58;;;5.80;93.90;;;;;;4841107;29;20054;-73
2021/11/14 04:22:34;;;;;;;60.13;27.20;;;5.80;94.00;;;;;;4824899;29;20073;-73
2021/11/14 04:25:03;;;;;;;56.90;28.30;;;5.70;94.20;;;;;;4842276;29;20073;-73
2021/11/14 04:27:30;;;;;;;56.15;26.75;;;5.70;94.40;;;;;;4844004;29;20058;-73
2021/11/14 04:29:58;;;;;;;56.70;22.65;;;5.70;94.40;;;;;;4827495;29;20053;-73
2021/11/14 04:32:25;;;;;;;64.28;25.90;;;5.60;94.10;;;;;;4844950;29;20042;-73
2021/11/14 04:34:53;;;;;;;41.08;20.45;;;5.50;93.60;;;;;;4844482;29;20504;-73
2021/11/14 04:37:20;;;;;;;69.28;26.38;;;5.30;93.50;;;;;;4844654;29;20057;-73
2021/11/14 04:39:48;;;;;;;69.95;27.67;;;5.20;93.40;;;;;;4844741;29;20050;-73
2021/11/14 04:42:16;;;;;;;69.00;30.17;;;5.10;93.50;;;;;;4843364;29;20069;-73
2021/11/14 04:44:44;;;;;;;63.42;28.80;;;5.00;93.80;;;;;;4827261;29;20061;-73
2021/11/14 04:47:11;;;;;;;67.35;29.13;;;5.00;93.70;;;;;;4844568;29;20046;-73
2021/11/14 04:49:39;;;;;;;54.30;26.60;;;4.90;93.70;;;;;;4844537;29;20046;-73
2021/11/14 04:52:09;;;;;;;70.28;27.45;;;4.80;93.90;;;;;;4844501;29;20060;-73
2021/11/14 04:54:36;;;;;;;56.47;25.08;;;4.80;94.00;;;;;;4828015;29;20053;-73
2021/11/14 04:57:04;;;;;;;59.05;24.65;;;4.80;94.20;;;;;;4844350;29;20412;-73
2021/11/14 04:59:32;;;;;;;59.00;25.13;;;4.70;94.20;;;;;;4836626;29;20392;-73
2021/11/14 05:02:00;;;;;;;56.03;27.10;;;4.70;94.00;;;;;;4826310;29;20054;-73
2021/11/14 05:04:28;;;;;;;68.50;29.33;;;4.60;94.10;;;;;;4825764;29;20063;-73
2021/11/14 05:06:56;;;;;;;80.50;29.13;;;4.60;94.10;;;;;;4839752;29;20572;-73
2021/11/14 05:09:23;;;;;;;60.67;26.35;;;4.50;94.20;;;;;;4825749;29;20057;-73
2021/11/14 05:11:51;;;;;;;53.55;23.88;;;4.50;94.30;;;;;;4825637;29;20054;-73
2021/11/14 05:14:19;;;;;;;45.13;22.77;;;4.40;94.20;;;;;;4825185;29;20077;-73
2021/11/14 05:16:47;;;;;;;62.20;27.35;;;4.40;94.10;;;;;;4825676;29;20054;-73
2021/11/14 05:19:15;;;;;;;58.55;27.25;;;4.30;94.00;;;;;;4825625;29;20054;-73
2021/11/14 05:21:43;;;;;;;64.70;30.42;;;4.30;93.90;;;;;;4825428;29;20054;-73
2021/11/14 05:24:10;;;;;;;52.03;27.00;;;4.20;93.90;;;;;;4825667;29;20069;-73
2021/11/14 05:26:38;;;;;;;49.90;25.55;;;4.20;94.20;;;;;;4825666;29;20058;-73
2021/11/14 05:29:05;;;;;;;59.45;25.13;;;4.20;94.20;;;;;;4825406;29;20513;-73
2021/11/14 05:31:33;;;;;;;57.28;27.23;;;4.10;94.10;;;;;;4825128;29;20069;-73
2021/11/14 05:34:01;;;;;;;68.22;30.88;;;4.00;94.00;;;;;;4825431;29;20051;-73
2021/11/14 05:36:29;;;;;;;76.40;32.30;;;4.00;94.00;;;;;;4823276;29;20058;-73
2021/11/14 05:38:57;;;;;;;57.30;27.58;;;4.00;94.20;;;;;;4825397;29;20047;-73
2021/11/14 05:41:24;;;;;;;65.25;28.85;;;4.00;94.30;;;;;;4825322;29;20047;-74
2021/11/14 05:43:52;;;;;;;58.00;29.38;;;3.90;94.40;;;;;;4825255;29;20591;-73
2021/11/14 05:46:20;;;;;;;81.90;38.85;;;3.90;94.60;;;;;;4825143;29;20046;-73
2021/11/14 05:48:47;;;;;;;83.70;36.13;;;3.90;94.60;;;;;;4809204;29;20054;-73
2021/11/14 05:51:20;;;;;;;80.70;36.17;;;3.90;94.40;;;;;;4825167;29;20051;-73
2021/11/14 05:53:48;;;;;;;104.53;43.33;;;3.80;94.10;;;;;;4824003;29;20069;-73
2021/11/14 05:56:15;;;;;;;91.03;39.25;;;3.80;94.30;;;;;;4825078;29;20042;-73
2021/11/14 05:58:52;;;;;;;73.75;34.58;;;3.80;94.50;;;;;;4838271;29;20054;-73
2021/11/14 06:01:29;;;;;;;60.80;30.42;;;3.80;94.50;;;;;;4824859;29;20520;-73
2021/11/14 06:04:11;;;;;;;47.30;22.10;;;3.70;94.20;;;;;;4825020;29;20476;-73
2021/11/14 06:06:39;;;;;;;60.15;28.90;;;3.70;94.00;;;;;;4823719;29;20405;-73
2021/11/14 06:09:06;;;;;;;62.28;31.08;;;3.60;94.20;;;;;;4823796;29;20050;-74
2021/11/14 06:11:34;;;;;;;74.72;32.08;;;3.60;94.30;;;;;;4822697;29;20054;-73
2021/11/14 06:14:02;;;;;;;47.47;23.50;;;3.60;94.30;;;;;;4838767;29;20054;-73
2021/11/14 06:16:30;;;;;;;36.88;21.08;;;3.50;94.10;;;;;;4824901;29;20516;-73
2021/11/14 06:18:58;;;;;;;56.10;26.88;;;3.50;94.10;;;;;;4824132;29;20063;-73
2021/11/14 06:21:26;;;;;;;71.13;31.38;;;3.40;94.10;;;;;;4824288;29;20050;-73
2021/11/14 06:23:54;;;;;;;74.93;33.28;;;3.40;94.30;;;;;;4837781;29;20058;-73
2021/11/14 06:26:23;;;;;;;72.43;33.30;;;3.40;94.40;;;;;;4824694;29;20053;-73
2021/11/14 06:28:51;;;;;;;93.47;43.38;;;3.30;94.30;;;;;;4823403;29;20058;-73
2021/11/14 06:31:19;;;;;;;128.02;56.22;;;3.40;94.60;;;;;;4821504;29;20054;-73
2021/11/14 06:33:46;;;;;;;147.98;60.83;;;3.50;95.00;;;;;;4824264;29;20042;-73
2021/11/14 06:36:15;;;;;;;177.50;69.65;;;3.60;95.30;;;;;;4823118;29;20050;-73
2021/11/14 06:38:44;;;;;;;172.73;63.67;;;3.60;95.20;;;;;;4824701;29;20493;-73
2021/11/14 06:41:12;;;;;;;142.45;55.63;;;3.70;94.90;;;;;;4822960;29;20491;-73
2021/11/14 06:43:39;;;;;;;144.43;56.63;;;3.60;94.70;;;;;;4823158;29;20058;-73
2021/11/14 06:46:07;;;;;;;151.02;59.47;;;3.60;94.80;;;;;;4837976;29;20070;-73
2021/11/14 06:48:34;;;;;;;97.63;44.83;;;3.60;94.60;;;;;;4823291;29;20062;-73
2021/11/14 06:51:02;;;;;;;87.68;39.35;;;3.50;94.50;;;;;;4807707;29;20066;-73
2021/11/14 06:53:30;;;;;;;95.20;40.97;;;3.50;94.40;;;;;;4824240;29;20073;-73
2021/11/14 06:55:57;;;;;;;84.97;37.60;;;3.40;94.30;;;;;;4824447;29;20062;-73
2021/11/14 06:58:25;;;;;;;68.80;33.63;;;3.30;94.30;;;;;;4838150;29;20043;-73
2021/11/14 07:00:53;;;;;;;61.33;30.33;;;3.30;94.30;;;;;;4824031;29;20055;-73
2021/11/14 07:03:21;;;;;;;64.97;31.30;;;3.30;94.50;;;;;;4824205;29;20054;-73
2021/11/14 07:05:48;;;;;;;74.65;34.90;;;3.30;94.70;;;;;;4822950;29;20046;-73
2021/11/14 07:08:16;;;;;;;80.47;33.95;;;3.30;94.70;;;;;;4823951;29;20050;-73
2021/11/14 07:10:44;;;;;;;74.10;33.88;;;3.30;94.80;;;;;;4823989;29;20051;-73
2021/11/14 07:13:12;;;;;;;80.70;34.58;;;3.30;94.90;;;;;;4824059;29;20062;-73
2021/11/14 07:15:40;;;;;;;112.75;45.15;;;3.30;95.00;;;;;;4824072;29;20409;-73
2021/11/14 07:18:08;;;;;;;219.48;57.30;;;3.30;95.20;;;;;;4822791;29;20477;-73
2021/11/14 07:20:35;;;;;;;159.15;43.83;;;3.30;95.40;;;;;;4823962;29;20042;-74
2021/11/14 07:23:03;;;;;;;425.75;71.25;;;3.40;95.40;;;;;;4823830;29;20058;-74
2021/11/14 07:25:31;;;;;;;407.98;69.80;;;3.40;95.50;;;;;;4823901;29;20050;-74
2021/11/14 07:28:00;;;;;;;566.22;69.88;;;3.50;95.70;;;;;;4839371;29;20416;-74
2021/11/14 07:30:28;;;;;;;489.80;63.88;;;3.60;95.80;;;;;;4805367;29;20135;-74
2021/11/14 07:32:56;;;;;;;242.85;58.20;;;3.60;95.80;;;;;;4789057;29;20058;-75
2021/11/14 07:35:26;;;;;;;382.40;72.40;;;3.70;95.80;;;;;;4803858;29;20051;-75
2021/11/14 07:37:54;;;;;;;349.45;70.90;;;3.70;96.00;;;;;;4805245;29;20066;-75
2021/11/14 07:40:23;;;;;;;420.58;77.07;;;3.80;96.00;;;;;;4804147;29;20054;-75
2021/11/14 07:42:52;;;;;;;618.03;86.07;;;3.80;96.00;;;;;;4805258;29;20054;-75
2021/11/14 07:45:22;;;;;;;558.97;83.05;;;3.90;96.00;;;;;;4805170;29;20054;-75
2021/11/14 07:47:51;;;;;;;276.85;63.17;;;3.90;96.00;;;;;;4804335;29;20078;-75
2021/11/14 07:50:22;;;;;;;459.90;74.85;;;3.90;96.00;;;;;;4805265;29;20406;-75
2021/11/14 07:52:50;;;;;;;600.83;76.40;;;3.90;96.00;;;;;;4805116;29;20059;-75
2021/11/14 07:55:18;;;;;;;539.53;61.50;;;4.00;96.00;;;;;;4803882;29;20061;-75
2021/11/14 07:57:46;;;;;;;836.85;91.63;;;4.00;96.00;;;;;;4805209;29;20066;-74
2021/11/14 08:00:19;;;;;;;895.22;101.78;;;4.00;96.10;;;;;;4791483;29;20059;-75
2021/11/14 08:02:47;;;;;;;747.00;81.35;;;4.00;96.10;;;;;;4811182;29;20402;-75
2021/11/14 08:05:16;;;;;;;400.38;63.63;;;4.10;96.20;;;;;;4809836;29;20070;-74
2021/11/14 08:07:45;;;;;;;423.73;68.85;;;4.20;96.30;;;;;;4809268;29;20405;-75
2021/11/14 08:10:16;;;;;;;464.15;61.97;;;4.20;96.30;;;;;;4811059;29;20050;-74
2021/11/14 08:12:44;;;;;;;351.52;46.58;;;4.20;96.20;;;;;;4824929;29;20055;-75
2021/11/14 08:15:13;;;;;;;226.90;51.40;;;4.20;96.20;;;;;;4808911;29;20446;-74
2021/11/14 08:17:41;;;;;;;216.02;50.67;;;4.20;96.20;;;;;;4810672;29;20063;-74
2021/11/14 08:20:10;;;;;;;86.20;42.58;;;4.20;96.20;;;;;;4810903;29;20106;-75
2021/11/14 08:22:38;;;;;;;89.13;41.28;;;4.20;96.10;;;;;;4810935;29;20051;-74
2021/11/14 08:25:06;;;;;;;108.88;44.67;;;4.20;96.00;;;;;;4810923;29;20054;-74
2021/11/14 08:27:34;;;;;;;117.75;43.97;;;4.20;95.80;;;;;;4811222;29;20509;-74
2021/11/14 08:30:04;;;;;;;138.48;46.63;;;4.10;95.70;;;;;;4818956;29;20493;-73
2021/11/14 08:32:33;;;;;;;104.03;43.35;;;4.10;95.50;;;;;;4817159;29;20058;-75
2021/11/14 08:35:01;;;;;;;119.97;46.55;;;4.10;95.60;;;;;;4820401;29;20070;-73
2021/11/14 08:37:28;;;;;;;202.45;58.22;;;4.00;95.60;;;;;;4833663;29;20047;-73
2021/11/14 08:39:56;;;;;;;239.10;60.65;;;4.10;95.90;;;;;;4818500;29;20050;-73
2021/11/14 08:42:24;;;;;;;122.78;52.60;;;4.20;96.20;;;;;;4819741;29;20050;-73
2021/11/14 08:44:52;;;;;;;106.07;50.72;;;4.30;96.40;;;;;;4819950;29;20043;-73
2021/11/14 08:47:19;;;;;;;126.53;53.75;;;4.50;96.60;;;;;;4834323;29;20050;-73
2021/11/14 08:49:47;;;;;;;96.13;48.50;;;4.60;96.80;;;;;;4819544;29;20050;-73
2021/11/14 08:52:14;;;;;;;97.00;47.53;;;4.80;96.80;;;;;;4818480;29;20421;-73
2021/11/14 08:54:43;;;;;;;110.70;46.60;;;4.90;96.90;;;;;;4819940;29;20448;-73
2021/11/14 08:57:11;;;;;;;119.50;47.58;;;5.00;96.90;;;;;;4819861;29;20485;-73
2021/11/14 08:59:39;;;;;;;116.65;49.00;;;5.20;96.90;;;;;;4818106;29;20072;-73
2021/11/14 09:02:07;;;;;;;101.50;46.13;;;5.30;96.90;;;;;;4819500;29;20046;-73
2021/11/14 09:04:34;;;;;;;83.85;41.60;;;5.50;96.90;;;;;;4820241;29;20059;-73
2021/11/14 09:07:03;;;;;;;72.13;36.03;;;5.60;97.00;;;;;;4818621;29;20054;-73
2021/11/14 09:09:30;;;;;;;66.22;33.83;;;5.70;97.00;;;;;;4818989;29;20505;-73
2021/11/14 09:11:58;;;;;;;70.55;34.38;;;5.80;97.00;;;;;;4816858;29;20496;-73
2021/11/14 09:14:26;;;;;;;77.05;35.80;;;5.80;96.90;;;;;;4814998;29;20070;-74
2021/11/14 09:16:55;;;;;;;61.22;31.83;;;5.80;96.80;;;;;;4814035;29;20190;-73
2021/11/14 09:19:23;;;;;;;64.68;32.30;;;5.80;96.80;;;;;;4817235;29;20061;-73
2021/11/14 09:21:51;;;;;;;68.47;31.48;;;5.80;96.80;;;;;;4816582;29;20064;-73
2021/11/14 09:24:19;;;;;;;66.40;33.53;;;5.90;96.80;;;;;;4814923;29;20050;-73
2021/11/14 09:26:47;;;;;;;71.75;33.67;;;5.90;96.70;;;;;;4816095;29;20496;-74
2021/11/14 09:29:15;;;;;;;64.03;33.03;;;6.00;96.60;;;;;;4822148;29;20508;-74
2021/11/14 09:31:42;;;;;;;67.05;32.25;;;6.00;96.70;;;;;;4825392;29;20054;-74
2021/11/14 09:34:11;;;;;;;69.82;34.20;;;6.10;96.70;;;;;;4825949;29;20513;-72
2021/11/14 09:36:38;;;;;;;72.47;38.22;;;6.20;96.80;;;;;;4825383;29;20046;-74
2021/11/14 09:39:08;;;;;;;63.58;33.95;;;6.30;96.90;;;;;;4824745;29;20062;-74
2021/11/14 09:41:43;;;;;;;65.22;33.78;;;6.40;97.00;;;;;;4825182;29;20501;-74
2021/11/14 09:44:17;;;;;;;71.63;36.97;;;6.60;97.00;;;;;;4839014;29;20051;-75
2021/11/14 09:46:57;;;;;;;63.13;34.13;;;6.70;97.00;;;;;;4823896;29;20417;-75
2021/11/14 09:49:27;;;;;;;63.63;33.65;;;6.80;96.90;;;;;;4839033;29;20066;-74
2021/11/14 09:51:56;;;;;;;68.82;36.05;;;6.90;96.90;;;;;;4825090;29;20049;-74
2021/11/14 09:54:25;;;;;;;71.78;36.53;;;7.00;96.80;;;;;;4825041;29;20057;-73
2021/11/14 09:56:56;;;;;;;55.60;33.50;;;7.10;96.80;;;;;;4824859;29;20046;-74
2021/11/14 09:59:24;;;;;;;57.42;32.72;;;7.20;96.90;;;;;;4823814;29;20069;-74
2021/11/14 10:01:54;;;;;;;66.60;35.35;;;7.30;96.80;;;;;;4824970;29;20504;-76
2021/11/14 10:04:22;;;;;;;58.20;32.42;;;7.50;96.80;;;;;;4824806;29;20054;-73
2021/11/14 10:07:06;;;;;;;60.13;34.13;;;7.70;96.70;;;;;;4824887;29;20058;-74
2021/11/14 10:09:43;;;;;;;50.85;27.30;;;7.80;96.60;;;;;;4838250;29;20046;-74
2021/11/14 10:12:11;;;;;;;45.53;26.20;;;8.00;96.50;;;;;;4824822;29;20054;-74
2021/11/14 10:14:40;;;;;;;42.47;26.02;;;8.20;96.30;;;;;;4824645;29;20386;-74
2021/11/14 10:17:20;;;;;;;47.40;26.75;;;8.30;96.10;;;;;;4824619;29;20409;-74
2021/11/14 10:20:09;;;;;;;43.97;24.75;;;8.50;95.90;;;;;;4823556;29;20054;-72
2021/11/14 10:22:41;;;;;;;39.60;22.65;;;8.60;95.80;;;;;;4824699;29;20054;-72
2021/11/14 10:25:12;;;;;;;40.65;22.25;;;8.70;95.60;;;;;;4824532;29;20077;-72
2021/11/14 10:27:40;;;;;;;35.70;21.20;;;8.80;95.40;;;;;;4824706;29;20057;-73
2021/11/14 10:30:11;;;;;;;35.83;21.00;;;8.90;95.20;;;;;;4823451;29;20069;-73
2021/11/14 10:32:39;;;;;;;41.22;21.00;;;9.00;95.00;;;;;;4808188;29;20067;-72
2021/11/14 10:35:07;;;;;;;33.90;20.85;;;9.10;94.90;;;;;;4824329;29;20430;-74
2021/11/14 10:37:44;;;;;;;31.23;19.33;;;9.20;94.80;;;;;;4824646;29;20496;-73
2021/11/14 10:40:17;;;;;;;32.05;18.25;;;9.30;94.60;;;;;;4822678;29;20532;-73
2021/11/14 10:42:48;;;;;;;31.00;18.55;;;9.40;94.40;;;;;;4823283;29;20061;-73
2021/11/14 10:45:17;;;;;;;30.45;17.85;;;9.50;94.20;;;;;;4822910;29;20058;-73
2021/11/14 10:47:55;;;;;;;27.05;17.52;;;9.50;94.00;;;;;;4824711;29;20701;-73
2021/11/14 10:50:27;;;;;;;28.48;18.30;;;9.60;93.90;;;;;;4824339;29;20351;-73
2021/11/14 10:53:01;;;;;;;29.73;17.48;;;9.70;93.80;;;;;;4838390;29;20054;-73
2021/11/14 10:55:38;;;;;;;25.83;16.85;;;9.80;93.70;;;;;;4823113;29;20065;-73
2021/11/14 10:58:07;;;;;;;26.55;15.88;;;9.90;93.60;;;;;;4824305;29;20061;-73
2021/11/14 11:00:37;;;;;;;21.38;14.95;;;10.00;93.50;;;;;;4837929;29;20062;-73
2021/11/14 11:03:06;;;;;;;24.05;14.73;;;10.00;93.30;;;;;;4823758;29;20070;-73
2021/11/14 11:05:35;;;;;;;20.45;13.38;;;10.00;93.10;;;;;;4823500;29;20062;-73
2021/11/14 11:08:32;;;;;;;17.95;11.93;;;10.10;93.00;;;;;;4822241;29;20060;-73
2021/11/14 11:11:03;;;;;;;15.63;11.95;;;10.20;93.00;;;;;;4811508;29;20501;-73
2021/11/14 11:13:38;;;;;;;18.92;13.10;;;10.30;92.80;;;;;;4824103;29;20046;-74
2021/11/14 11:16:19;;;;;;;14.15;11.27;;;10.40;92.60;;;;;;4824115;29;20046;-73
2021/11/14 11:19:00;;;;;;;24.73;15.50;;;10.50;92.50;;;;;;4822338;29;20057;-73
2021/11/14 11:21:40;;;;;;;24.88;15.77;;;10.60;92.30;;;;;;4822833;29;20050;-73
2021/11/14 11:24:12;;;;;;;23.40;15.98;;;10.70;92.20;;;;;;4823512;29;20058;-73
2021/11/14 11:26:53;;;;;;;18.80;12.98;;;10.80;92.10;;;;;;4823817;29;20046;-73
2021/11/14 11:29:22;;;;;;;21.95;13.13;;;10.90;91.90;;;;;;4837602;29;20054;-73
2021/11/14 11:31:50;;;;;;;24.05;16.42;;;11.00;91.70;;;;;;4823507;29;20408;-73
2021/11/14 11:34:20;;;;;;;26.27;16.40;;;11.10;91.50;;;;;;4822494;29;20070;-72
2021/11/14 11:36:49;;;;;;;22.90;15.18;;;11.10;91.30;;;;;;4823744;29;20049;-73
2021/11/14 11:39:17;;;;;;;21.23;14.10;;;11.20;91.20;;;;;;4823377;29;20061;-73
2021/11/14 11:41:48;;;;;;;21.48;12.63;;;11.20;91.20;;;;;;4823554;29;20057;-73
2021/11/14 11:44:18;;;;;;;16.70;10.85;;;11.20;91.10;;;;;;4821822;29;20063;-72
2021/11/14 11:47:00;;;;;;;14.77;10.93;;;11.20;91.10;;;;;;4823304;29;20062;-72
2021/11/14 11:49:38;;;;;;;16.55;10.35;;;11.20;90.80;;;;;;4823371;29;20057;-72
2021/11/14 11:52:17;;;;;;;16.02;10.60;;;11.30;90.70;;;;;;4822244;29;20046;-73
2021/11/14 11:54:48;;;;;;;18.88;11.88;;;11.30;90.70;;;;;;4823326;29;20062;-73
2021/11/14 11:57:19;;;;;;;15.40;9.55;;;11.30;90.60;;;;;;4823028;29;20058;-73
2021/11/14 12:00:00;;;;;;;14.55;10.98;;;11.30;90.40;;;;;;4823370;29;20046;-73
2021/11/14 12:02:30;;;;;;;17.08;10.50;;;11.30;90.20;;;;;;4822211;29;20054;-73
2021/11/14 12:05:07;;;;;;;17.45;11.63;;;11.30;90.10;;;;;;4822786;29;20524;-73
2021/11/14 12:07:35;;;;;;;17.40;11.15;;;11.40;90.00;;;;;;4822769;29;20059;-73
2021/11/14 12:10:19;;;;;;;15.82;11.15;;;11.40;89.80;;;;;;4823493;29;20061;-73
2021/11/14 12:12:51;;;;;;;16.23;12.30;;;11.40;89.70;;;;;;4823789;29;20050;-74
2021/11/14 12:15:19;;;;;;;20.52;12.98;;;11.40;89.60;;;;;;4821121;29;20062;-74
2021/11/14 12:17:55;;;;;;;16.48;11.43;;;11.40;89.50;;;;;;4822051;29;20046;-73
2021/11/14 12:20:34;;;;;;;18.45;12.43;;;11.40;89.50;;;;;;4823193;29;20404;-72
2021/11/14 12:23:05;;;;;;;17.45;12.48;;;11.50;89.40;;;;;;4823146;29;20043;-73
2021/11/14 12:25:40;;;;;;;18.00;12.10;;;11.40;89.20;;;;;;4823094;29;20485;-71
2021/11/14 12:28:16;;;;;;;16.60;12.65;;;11.50;89.20;;;;;;4823347;29;20058;-73
2021/11/14 12:33:44;;;;;;;17.92;12.68;;;11.60;89.00;;;;;;4823231;29;20050;-73
2021/11/14 12:36:23;;;;;;;17.08;13.20;;;11.60;88.90;;;;;;4836675;29;20513;-74
2021/11/14 12:39:04;;;;;;;19.88;13.32;;;11.60;88.70;;;;;;4822955;29;20397;-72
2021/11/14 12:41:36;;;;;;;18.02;12.95;;;11.70;88.70;;;;;;4823016;29;20413;-74
2021/11/14 12:44:04;;;;;;;21.38;12.70;;;11.70;88.60;;;;;;4822913;29;20049;-72
2021/11/14 12:46:33;;;;;;;23.27;13.35;;;11.70;88.50;;;;;;4822927;29;20065;-72
2021/11/14 12:49:19;;;;;;;19.35;13.10;;;11.70;88.30;;;;;;4840288;29;20061;-72
2021/11/14 12:51:53;;;;;;;22.20;13.45;;;11.80;88.20;;;;;;4824822;29;20061;-72